Abbott, New Mexico
Current Conditions -  °F | °C
As of 1:53 AM on Saturday 25 Oct 2014 (Local Time) from KRTN Reporting Station
Clear Clear  
Wind Chill: 35°   Ceiling: Unl
Heat Index: 41°   Visibility: 10mi
Dew Point: 30°   Wind: 9mph
Humidity: 65%   Direction: 60°ENE
Pressure: 30.29"   Gusts: NA
Location:  36.3883°N, 104.381°W
Report Text: KRTN 250753Z AUTO 06008KT 10SM CLR 05/M01 A3029 RMK AO2 SLP194 T00501011
Loading
Personal Weather Stations






























Interactive Weather Map
Tropical Storm Tracking
New forecast layout! Learn more

10-Day Weather Forecast

Advertisements
Track Severe Weather on mobile